createdAt,value
2023-05-20T00:00:29.931Z,4.50
2023-05-20T00:03:00.210Z,4.72
2023-05-20T00:05:28.236Z,4.65
2023-05-20T00:07:57.820Z,4.03
2023-05-20T00:10:25.729Z,3.90
2023-05-20T00:12:53.477Z,4.32
2023-05-20T00:15:21.363Z,4.35
2023-05-20T00:17:49.304Z,4.90
2023-05-20T00:20:17.101Z,4.13
2023-05-20T00:22:44.814Z,4.85
2023-05-20T00:25:14.781Z,4.13
2023-05-20T00:27:42.674Z,4.63
2023-05-20T00:30:11.523Z,4.22
2023-05-20T00:32:39.447Z,4.10
2023-05-20T00:35:09.327Z,4.55
2023-05-20T00:37:37.331Z,4.95
2023-05-20T00:40:06.778Z,3.88
2023-05-20T00:42:36.066Z,4.20
2023-05-20T00:45:04.188Z,4.05
2023-05-20T00:47:34.578Z,4.18
2023-05-20T00:50:03.423Z,4.03
2023-05-20T00:52:33.419Z,4.25
2023-05-20T00:55:01.297Z,3.90
2023-05-20T00:57:29.514Z,4.15
2023-05-20T00:59:58.881Z,4.28
2023-05-20T01:02:26.951Z,4.70
2023-05-20T01:04:56.675Z,4.45
2023-05-20T01:07:25.638Z,4.10
2023-05-20T01:09:55.866Z,3.80
2023-05-20T01:12:28.109Z,4.60
2023-05-20T01:15:00.528Z,4.25
2023-05-20T01:17:32.974Z,4.80
2023-05-20T01:20:04.294Z,4.00
2023-05-20T01:22:33.494Z,3.88
2023-05-20T01:25:03.068Z,4.05
2023-05-20T01:27:31.341Z,4.72
2023-05-20T01:29:59.158Z,3.83
2023-05-20T01:32:33.004Z,4.35
2023-05-20T01:35:01.570Z,4.13
2023-05-20T01:37:29.847Z,4.22
2023-05-20T01:40:00.477Z,3.58
2023-05-20T01:42:30.057Z,4.03
2023-05-20T01:45:00.039Z,3.72
2023-05-20T01:47:28.013Z,4.13
2023-05-20T01:49:56.539Z,4.57
2023-05-20T01:52:24.724Z,3.78
2023-05-20T01:54:52.490Z,4.20
2023-05-20T01:57:22.398Z,4.22
2023-05-20T01:59:51.609Z,4.47
2023-05-20T02:02:19.634Z,4.75
2023-05-20T02:04:49.851Z,4.15
2023-05-20T02:07:18.797Z,3.90
2023-05-20T02:09:47.212Z,3.90
2023-05-20T02:12:17.373Z,4.07
2023-05-20T02:14:47.561Z,4.30
2023-05-20T02:17:17.853Z,3.90
2023-05-20T02:19:46.167Z,3.88
2023-05-20T02:22:14.319Z,3.58
2023-05-20T02:24:44.555Z,3.75
2023-05-20T02:27:12.978Z,4.40
2023-05-20T02:29:40.814Z,3.90
2023-05-20T02:32:10.132Z,4.10
2023-05-20T02:34:37.925Z,4.70
2023-05-20T02:37:06.354Z,3.97
2023-05-20T02:39:34.219Z,3.97
2023-05-20T02:42:02.158Z,3.92
2023-05-20T02:44:30.164Z,3.90
2023-05-20T02:46:58.391Z,3.65
2023-05-20T02:49:27.562Z,4.38
2023-05-20T02:51:56.887Z,3.35
2023-05-20T02:54:24.842Z,3.45
2023-05-20T02:56:52.806Z,3.92
2023-05-20T02:59:20.654Z,3.50
2023-05-20T03:01:48.811Z,3.50
2023-05-20T03:04:19.251Z,3.45
2023-05-20T03:06:48.540Z,4.18
2023-05-20T03:09:17.032Z,3.60
2023-05-20T03:11:45.210Z,3.92
2023-05-20T03:14:13.103Z,3.30
2023-05-20T03:16:41.633Z,3.40
2023-05-20T03:19:09.525Z,3.35
2023-05-20T03:21:37.651Z,3.30
2023-05-20T03:24:07.343Z,3.05
2023-05-20T03:26:37.609Z,2.90
2023-05-20T03:29:06.862Z,3.00
2023-05-20T03:31:34.862Z,2.67
2023-05-20T03:34:02.823Z,3.10
2023-05-20T03:36:31.155Z,3.05
2023-05-20T03:38:59.373Z,3.20
2023-05-20T03:41:28.574Z,3.35
2023-05-20T03:43:57.060Z,2.85
2023-05-20T03:46:26.179Z,2.47
2023-05-20T03:48:54.020Z,2.60
2023-05-20T03:51:21.783Z,3.00
2023-05-20T03:53:51.031Z,3.65
2023-05-20T03:56:18.783Z,2.28
2023-05-20T03:58:48.189Z,2.55
2023-05-20T04:01:15.981Z,3.13
2023-05-20T04:03:44.090Z,1.83
2023-05-20T04:06:12.147Z,2.10
2023-05-20T04:08:40.061Z,2.38
2023-05-20T04:11:08.155Z,2.40
2023-05-20T04:13:36.146Z,2.40
2023-05-20T04:16:06.501Z,2.15
2023-05-20T04:18:38.996Z,2.60
2023-05-20T04:21:08.326Z,2.30
2023-05-20T04:23:36.084Z,3.13
2023-05-20T04:26:04.310Z,2.40
2023-05-20T04:28:33.388Z,2.10
2023-05-20T04:31:02.872Z,2.40
2023-05-20T04:33:32.889Z,2.38
2023-05-20T04:36:03.191Z,1.85
2023-05-20T04:38:32.444Z,2.42
2023-05-20T04:41:02.389Z,2.33
2023-05-20T04:43:31.738Z,2.28
2023-05-20T04:46:01.423Z,1.95
2023-05-20T04:48:29.532Z,2.25
2023-05-20T04:50:59.617Z,1.83
2023-05-20T04:53:27.426Z,2.28
2023-05-20T04:55:57.054Z,2.30
2023-05-20T04:58:25.499Z,1.73
2023-05-20T05:00:54.148Z,1.85
2023-05-20T05:03:21.925Z,2.35
2023-05-20T05:05:50.425Z,1.92
2023-05-20T05:08:19.695Z,2.50
2023-05-20T05:10:51.689Z,2.00
2023-05-20T05:13:19.556Z,1.63
2023-05-20T05:15:47.428Z,1.77
2023-05-20T05:18:18.513Z,1.63
2023-05-20T05:20:46.474Z,2.20
2023-05-20T05:23:14.346Z,1.60
2023-05-20T05:25:43.878Z,2.00
2023-05-20T05:28:11.735Z,1.60
2023-05-20T05:30:40.114Z,1.42
2023-05-20T05:33:08.189Z,1.70
2023-05-20T05:35:36.261Z,1.75
2023-05-20T05:38:04.189Z,2.05
2023-05-20T05:40:32.113Z,1.67
2023-05-20T05:43:01.431Z,1.35
2023-05-20T05:45:29.727Z,1.70
2023-05-20T05:47:58.266Z,1.40
2023-05-20T05:50:26.866Z,1.60
2023-05-20T05:52:55.517Z,1.30
2023-05-20T05:55:24.421Z,1.50
2023-05-20T05:57:53.005Z,1.70
2023-05-20T06:00:22.181Z,1.67
2023-05-20T06:02:50.315Z,2.42
2023-05-20T06:05:33.621Z,1.47
2023-05-20T06:08:02.107Z,1.70
2023-05-20T06:10:31.423Z,1.70
2023-05-20T06:12:59.544Z,1.63
2023-05-20T06:15:29.698Z,1.60
2023-05-20T06:17:58.246Z,1.55
2023-05-20T06:20:27.388Z,1.40
2023-05-20T06:22:55.521Z,1.25
2023-05-20T06:25:26.214Z,1.33
2023-05-20T06:27:54.200Z,1.70
2023-05-20T06:30:23.556Z,1.40
2023-05-20T06:32:53.081Z,1.35
2023-05-20T06:35:21.189Z,1.30
2023-05-20T06:37:49.044Z,1.50
2023-05-20T06:40:17.810Z,1.25
2023-05-20T06:42:45.811Z,1.58
2023-05-20T06:45:14.624Z,1.30
2023-05-20T06:47:45.178Z,2.15
2023-05-20T06:50:14.624Z,1.27
2023-05-20T06:52:42.484Z,1.27
2023-05-20T06:55:11.275Z,1.30
2023-05-20T06:57:39.147Z,1.60
2023-05-20T07:00:09.190Z,1.38
2023-05-20T07:02:41.537Z,1.70
2023-05-20T07:05:10.561Z,1.88
2023-05-20T07:07:39.834Z,1.45
2023-05-20T07:10:09.119Z,1.35
2023-05-20T07:12:37.201Z,1.17
2023-05-20T07:15:06.136Z,1.50
2023-05-20T07:17:34.860Z,1.55
2023-05-20T07:20:04.155Z,1.67
2023-05-20T07:22:32.631Z,1.50
2023-05-20T07:25:14.230Z,1.10
2023-05-20T07:27:42.079Z,1.73
2023-05-20T07:30:10.438Z,1.92
2023-05-20T07:32:40.724Z,1.10
2023-05-20T07:35:11.069Z,1.58
2023-05-20T07:37:38.876Z,1.75
2023-05-20T07:40:09.813Z,1.70
2023-05-20T07:42:40.661Z,1.38
2023-05-20T07:45:10.065Z,1.65
2023-05-20T07:47:38.925Z,1.67
2023-05-20T07:50:08.120Z,1.50
2023-05-20T07:52:48.199Z,1.27
2023-05-20T07:55:24.979Z,1.63
2023-05-20T07:57:54.816Z,1.40
2023-05-20T08:00:24.297Z,2.20
2023-05-20T08:02:52.395Z,1.77
2023-05-20T08:05:27.073Z,2.08
2023-05-20T08:07:55.200Z,1.98
2023-05-20T08:10:25.824Z,1.83
2023-05-20T08:12:55.985Z,1.40
2023-05-20T08:15:23.962Z,1.52
2023-05-20T08:17:51.848Z,1.52
2023-05-20T08:20:20.929Z,2.03
2023-05-20T08:22:48.868Z,1.58
2023-05-20T08:25:20.237Z,1.70
2023-05-20T08:27:48.320Z,1.42
2023-05-20T08:30:19.129Z,1.98
2023-05-20T08:32:48.822Z,1.70
2023-05-20T08:35:16.875Z,1.80
2023-05-20T08:37:44.680Z,1.75
2023-05-20T08:40:14.257Z,1.58
2023-05-20T08:42:43.703Z,2.45
2023-05-20T08:45:14.298Z,1.52
2023-05-20T08:47:44.186Z,1.20
2023-05-20T08:50:14.300Z,1.50
2023-05-20T08:52:45.306Z,1.90
2023-05-20T08:55:17.327Z,1.90
2023-05-20T08:57:47.221Z,2.15
2023-05-20T09:00:17.190Z,1.67
2023-05-20T09:02:47.678Z,1.85
2023-05-20T09:05:15.840Z,1.60
2023-05-20T09:07:43.787Z,1.90
2023-05-20T09:10:12.178Z,1.60
2023-05-20T09:12:40.418Z,1.85
2023-05-20T09:15:09.846Z,1.73
2023-05-20T09:17:38.419Z,1.73
2023-05-20T09:20:12.905Z,1.30
2023-05-20T09:22:41.630Z,1.55
2023-05-20T09:25:12.490Z,1.75
2023-05-20T09:27:41.615Z,1.60
2023-05-20T09:30:12.901Z,2.33
2023-05-20T09:32:44.254Z,1.60
2023-05-20T09:35:15.763Z,1.70
2023-05-20T09:37:48.562Z,1.52
2023-05-20T09:40:21.305Z,1.77
2023-05-20T09:42:53.978Z,2.00
2023-05-20T09:45:23.401Z,1.33
2023-05-20T09:47:53.475Z,1.60
2023-05-20T09:50:24.665Z,2.05
2023-05-20T09:52:55.482Z,1.65
2023-05-20T09:55:26.192Z,2.03
2023-05-20T09:57:55.209Z,2.20
2023-05-20T10:00:23.410Z,2.33
2023-05-20T10:02:52.961Z,1.73
2023-05-20T10:05:24.250Z,1.75
2023-05-20T10:08:23.454Z,1.58
2023-05-20T10:10:57.789Z,2.03
2023-05-20T10:13:44.209Z,1.67
2023-05-20T10:16:25.088Z,2.22
2023-05-20T10:19:03.127Z,1.98
2023-05-20T10:21:33.293Z,2.10
2023-05-20T10:24:08.097Z,2.10
2023-05-20T10:26:37.252Z,1.95
2023-05-20T10:29:17.818Z,2.05
2023-05-20T10:31:46.716Z,2.15
2023-05-20T10:34:17.419Z,2.00
2023-05-20T10:36:49.310Z,2.03
2023-05-20T10:39:18.013Z,2.58
2023-05-20T10:41:46.035Z,2.05
2023-05-20T10:44:13.851Z,2.10
2023-05-20T10:46:57.181Z,2.22
2023-05-20T10:49:36.131Z,3.50
2023-05-20T10:52:05.709Z,2.33
2023-05-20T10:54:37.074Z,1.88
2023-05-20T10:57:09.239Z,2.70
2023-05-20T10:59:37.496Z,2.05
2023-05-20T11:02:06.044Z,2.22
2023-05-20T11:04:34.059Z,2.22
2023-05-20T11:07:02.480Z,2.10
2023-05-20T11:09:32.356Z,2.33
2023-05-20T11:12:00.260Z,2.40
2023-05-20T11:14:29.833Z,2.20
2023-05-20T11:16:59.117Z,2.60
2023-05-20T11:19:27.728Z,2.38
2023-05-20T11:21:56.004Z,2.00
2023-05-20T11:24:26.756Z,3.85
2023-05-20T11:26:58.468Z,2.15
2023-05-20T11:29:28.995Z,2.58
2023-05-20T11:31:57.150Z,2.60
2023-05-20T11:34:26.822Z,2.67
2023-05-20T11:36:58.710Z,2.67
2023-05-20T11:39:27.872Z,2.95
2023-05-20T11:41:57.307Z,2.78
2023-05-20T11:44:26.398Z,2.83
2023-05-20T11:47:01.099Z,2.97
2023-05-20T11:49:29.190Z,3.17
2023-05-20T11:51:58.081Z,2.70
2023-05-20T11:54:26.033Z,2.78
2023-05-20T11:56:57.074Z,2.63
2023-05-20T11:59:25.736Z,3.60
2023-05-20T12:01:53.798Z,2.28
2023-05-20T12:04:21.889Z,2.72
2023-05-20T12:06:49.733Z,2.72
2023-05-20T12:09:17.683Z,2.47
2023-05-20T12:11:45.612Z,2.92
2023-05-20T12:14:14.945Z,2.72
2023-05-20T12:16:42.687Z,2.85
2023-05-20T12:19:10.590Z,4.72
2023-05-20T12:21:38.776Z,4.07
2023-05-20T12:24:08.561Z,3.28
2023-05-20T12:26:36.636Z,3.55
2023-05-20T12:29:04.611Z,3.20
2023-05-20T12:31:35.118Z,2.85
2023-05-20T12:34:03.770Z,3.28
2023-05-20T12:36:32.361Z,2.95
2023-05-20T12:39:00.479Z,3.40
2023-05-20T12:41:28.429Z,2.55
2023-05-20T12:43:56.645Z,3.10
2023-05-20T12:46:24.713Z,3.55
2023-05-20T12:48:53.957Z,3.28
2023-05-20T12:51:21.730Z,3.20
2023-05-20T12:53:49.554Z,3.05
2023-05-20T12:56:17.735Z,3.42
2023-05-20T12:58:46.279Z,3.00
2023-05-20T13:01:14.250Z,2.85
2023-05-20T13:03:42.221Z,3.28
2023-05-20T13:06:11.458Z,2.67
2023-05-20T13:08:39.317Z,3.28
2023-05-20T13:11:07.324Z,3.67
2023-05-20T13:13:35.190Z,3.67
2023-05-20T13:16:03.531Z,2.92
2023-05-20T13:18:31.261Z,3.10
2023-05-20T13:20:59.109Z,2.65
2023-05-20T13:23:28.314Z,3.22
2023-05-20T13:25:56.582Z,3.45
2023-05-20T13:28:24.480Z,8.32
2023-05-20T13:30:52.525Z,5.82
2023-05-20T13:33:20.348Z,3.80
2023-05-20T13:35:48.313Z,2.75
2023-05-20T13:38:16.310Z,2.65
2023-05-20T13:40:45.479Z,3.40
2023-05-20T13:43:13.274Z,3.15
2023-05-20T13:45:41.056Z,3.72
2023-05-20T13:48:08.865Z,3.15
2023-05-20T13:50:36.790Z,3.22
2023-05-20T13:53:05.314Z,3.00
2023-05-20T13:55:33.096Z,3.40
2023-05-20T13:58:02.294Z,3.38
2023-05-20T14:00:30.151Z,3.95
2023-05-20T14:02:59.203Z,3.13
2023-05-20T14:05:27.504Z,3.40
2023-05-20T14:07:55.453Z,3.45
2023-05-20T14:10:23.529Z,3.22
2023-05-20T14:12:51.686Z,3.03
2023-05-20T14:15:21.789Z,2.95
2023-05-20T14:17:49.619Z,2.75
2023-05-20T14:20:17.763Z,3.42
2023-05-20T14:22:45.623Z,2.45
2023-05-20T14:25:13.608Z,3.10
2023-05-20T14:27:41.388Z,3.03
2023-05-20T14:30:10.788Z,3.60
2023-05-20T14:32:40.075Z,2.80
2023-05-20T14:35:09.028Z,2.53
2023-05-20T14:37:36.926Z,2.83
2023-05-20T14:40:07.448Z,4.05
2023-05-20T14:42:35.564Z,3.72
2023-05-20T14:45:03.673Z,3.40
2023-05-20T14:47:31.568Z,3.10
2023-05-20T14:50:01.309Z,3.97
2023-05-20T14:52:29.217Z,2.88
2023-05-20T14:54:57.636Z,3.15
2023-05-20T14:57:25.508Z,3.28
2023-05-20T14:59:53.292Z,3.50
2023-05-20T15:02:21.204Z,3.17
2023-05-20T15:04:49.020Z,2.97
2023-05-20T15:07:21.343Z,2.38
2023-05-20T15:09:49.959Z,2.75
2023-05-20T15:12:17.712Z,2.80
2023-05-20T15:14:45.491Z,2.88
2023-05-20T15:17:13.724Z,3.08
2023-05-20T15:19:41.954Z,2.90
2023-05-20T15:22:10.072Z,2.22
2023-05-20T15:24:39.405Z,2.80
2023-05-20T15:27:07.386Z,2.90
2023-05-20T15:29:35.236Z,2.60
2023-05-20T15:32:03.353Z,2.40
2023-05-20T15:34:31.351Z,2.30
2023-05-20T15:36:59.467Z,2.17
2023-05-20T15:39:28.499Z,2.45
2023-05-20T15:41:59.453Z,2.47
2023-05-20T15:44:28.751Z,2.80
2023-05-20T15:46:56.688Z,2.28
2023-05-20T15:49:24.592Z,2.80
2023-05-20T15:52:03.023Z,2.20
2023-05-20T15:54:32.302Z,2.10
2023-05-20T15:57:02.753Z,3.05
2023-05-20T15:59:30.789Z,2.30
2023-05-20T16:01:58.750Z,2.58
2023-05-20T16:04:26.674Z,2.40
2023-05-20T16:06:54.529Z,2.47
2023-05-20T16:09:22.495Z,2.40
2023-05-20T16:11:50.326Z,2.50
2023-05-20T16:14:19.673Z,2.17
2023-05-20T16:16:47.571Z,2.40
2023-05-20T16:19:15.540Z,2.25
2023-05-20T16:21:43.332Z,1.95
2023-05-20T16:24:11.105Z,2.17
2023-05-20T16:26:39.057Z,2.10
2023-05-20T16:29:06.902Z,1.75
2023-05-20T16:31:36.280Z,1.80
2023-05-20T16:34:04.912Z,1.65
2023-05-20T16:36:32.800Z,1.65
2023-05-20T16:39:00.838Z,1.83
2023-05-20T16:41:28.801Z,1.52
2023-05-20T16:43:56.758Z,1.85
2023-05-20T16:46:24.700Z,1.73
2023-05-20T16:48:53.886Z,1.73
2023-05-20T16:51:22.069Z,1.88
2023-05-20T16:53:49.862Z,2.45
2023-05-20T16:56:17.706Z,1.80
2023-05-20T16:58:45.576Z,1.88
2023-05-20T17:01:13.428Z,3.00
2023-05-20T17:03:41.214Z,2.22
2023-05-20T17:06:10.428Z,1.58
2023-05-20T17:08:39.037Z,1.60
2023-05-20T17:11:06.857Z,1.73
2023-05-20T17:13:34.591Z,1.60
2023-05-20T17:16:02.433Z,2.15
2023-05-20T17:18:30.357Z,1.92
2023-05-20T17:20:58.217Z,1.83
2023-05-20T17:23:27.351Z,1.60
2023-05-20T17:25:55.292Z,1.77
2023-05-20T17:28:23.305Z,1.70
2023-05-20T17:30:51.222Z,2.00
2023-05-20T17:33:19.278Z,1.75
2023-05-20T17:35:47.168Z,1.70
2023-05-20T17:38:14.942Z,1.85
2023-05-20T17:40:44.182Z,1.92
2023-05-20T17:43:11.983Z,1.83
2023-05-20T17:45:39.865Z,1.90
2023-05-20T17:48:10.101Z,1.65
2023-05-20T17:50:39.500Z,1.60
2023-05-20T17:53:07.427Z,1.88
2023-05-20T17:55:36.525Z,2.40
2023-05-20T17:58:07.149Z,2.30
2023-05-20T18:00:41.948Z,2.78
2023-05-20T18:03:10.556Z,1.88
2023-05-20T18:05:38.736Z,2.15
2023-05-20T18:08:06.780Z,2.15
2023-05-20T18:10:34.874Z,2.25
2023-05-20T18:13:04.009Z,2.13
2023-05-20T18:15:33.291Z,2.20
2023-05-20T18:18:01.424Z,2.20
2023-05-20T18:20:29.703Z,2.40
2023-05-20T18:22:58.748Z,2.08
2023-05-20T18:25:27.384Z,2.05
2023-05-20T18:27:55.286Z,2.05
2023-05-20T18:30:23.397Z,2.05
2023-05-20T18:32:53.267Z,2.30
2023-05-20T18:35:21.081Z,2.17
2023-05-20T18:37:48.911Z,2.22
2023-05-20T18:40:16.749Z,2.03
2023-05-20T18:42:44.546Z,1.77
2023-05-20T18:45:12.997Z,2.40
2023-05-20T18:47:40.908Z,2.15
2023-05-20T18:50:11.295Z,2.65
2023-05-20T18:52:39.092Z,2.83
2023-05-20T18:55:08.060Z,2.10
2023-05-20T18:57:35.835Z,2.08
2023-05-20T19:00:07.671Z,2.17
2023-05-20T19:02:35.463Z,2.50
2023-05-20T19:05:03.513Z,2.63
2023-05-20T19:07:33.108Z,2.33
2023-05-20T19:10:01.266Z,1.77
2023-05-20T19:12:29.296Z,2.50
2023-05-20T19:14:57.163Z,2.47
2023-05-20T19:17:25.374Z,2.38
2023-05-20T19:19:53.179Z,2.25
2023-05-20T19:22:21.080Z,3.33
2023-05-20T19:24:50.214Z,2.72
2023-05-20T19:27:17.988Z,2.35
2023-05-20T19:29:45.951Z,2.47
2023-05-20T19:32:13.724Z,2.47
2023-05-20T19:34:41.857Z,2.85
2023-05-20T19:37:09.582Z,2.63
2023-05-20T19:39:37.383Z,2.38
2023-05-20T19:42:07.013Z,3.20
2023-05-20T19:44:34.985Z,2.53
2023-05-20T19:47:05.496Z,2.95
2023-05-20T19:49:33.783Z,3.60
2023-05-20T19:52:01.764Z,2.90
2023-05-20T19:54:29.871Z,3.78
2023-05-20T19:56:58.005Z,3.17
2023-05-20T19:59:27.247Z,2.92
2023-05-20T20:01:55.286Z,3.50
2023-05-20T20:04:23.097Z,3.85
2023-05-20T20:06:51.095Z,4.57
2023-05-20T20:09:18.914Z,4.03
2023-05-20T20:11:46.733Z,3.95
2023-05-20T20:14:14.474Z,3.40
2023-05-20T20:16:48.758Z,4.43
2023-05-20T20:19:22.851Z,3.50
2023-05-20T20:21:52.976Z,3.25
2023-05-20T20:24:21.362Z,3.67
2023-05-20T20:26:49.256Z,3.35
2023-05-20T20:29:17.094Z,3.92
2023-05-20T20:31:46.501Z,5.47
2023-05-20T20:34:14.418Z,4.20
2023-05-20T20:36:44.906Z,3.90
2023-05-20T20:39:18.897Z,3.35
2023-05-20T20:41:47.393Z,3.20
2023-05-20T20:44:18.594Z,3.70
2023-05-20T20:46:50.735Z,3.28
2023-05-20T20:49:18.898Z,3.67
2023-05-20T20:51:46.695Z,3.47
2023-05-20T20:54:15.315Z,3.88
2023-05-20T20:56:45.396Z,3.45
2023-05-20T20:59:13.865Z,3.67
2023-05-20T21:01:42.286Z,3.25
2023-05-20T21:04:13.820Z,3.33
2023-05-20T21:06:45.872Z,3.00
2023-05-20T21:09:13.929Z,3.42
2023-05-20T21:11:42.815Z,3.45
2023-05-20T21:14:10.642Z,3.30
2023-05-20T21:16:38.651Z,3.15
2023-05-20T21:19:06.587Z,3.97
2023-05-20T21:21:36.174Z,3.78
2023-05-20T21:24:04.382Z,3.55
2023-05-20T21:26:32.149Z,3.40
2023-05-20T21:28:59.985Z,3.30
2023-05-20T21:31:28.047Z,3.10
2023-05-20T21:33:56.022Z,3.13
2023-05-20T21:36:23.828Z,3.40
2023-05-20T21:38:52.954Z,3.50
2023-05-20T21:41:21.529Z,3.58
2023-05-20T21:43:49.348Z,5.20
2023-05-20T21:46:17.212Z,3.78
2023-05-20T21:48:44.990Z,4.10
2023-05-20T21:51:13.177Z,3.90
2023-05-20T21:53:41.960Z,3.65
2023-05-20T21:56:11.419Z,4.78
2023-05-20T21:58:42.714Z,5.45
2023-05-20T22:01:10.789Z,6.45
2023-05-20T22:03:39.876Z,4.10
2023-05-20T22:06:08.027Z,4.47
2023-05-20T22:08:35.853Z,4.40
2023-05-20T22:11:07.204Z,5.30
2023-05-20T22:13:41.315Z,4.00
2023-05-20T22:16:09.855Z,4.30
2023-05-20T22:18:38.489Z,3.80
2023-05-20T22:21:06.806Z,3.72
2023-05-20T22:23:34.547Z,3.50
2023-05-20T22:26:02.804Z,3.40
2023-05-20T22:28:30.615Z,4.35
2023-05-20T22:30:59.855Z,3.70
2023-05-20T22:33:27.834Z,4.03
2023-05-20T22:35:57.220Z,4.00
2023-05-20T22:38:25.636Z,4.10
2023-05-20T22:40:53.368Z,3.95
2023-05-20T22:43:23.237Z,3.53
2023-05-20T22:45:51.407Z,4.25
2023-05-20T22:48:23.108Z,3.88
2023-05-20T22:50:51.083Z,4.18
2023-05-20T22:53:18.882Z,4.00
2023-05-20T22:55:46.711Z,4.55
2023-05-20T22:58:14.605Z,4.07
2023-05-20T23:00:44.331Z,4.60
2023-05-20T23:03:12.199Z,5.63
2023-05-20T23:05:41.459Z,3.40
2023-05-20T23:08:09.280Z,3.03
2023-05-20T23:10:37.038Z,4.10
2023-05-20T23:13:05.660Z,3.30
2023-05-20T23:15:33.935Z,4.38
2023-05-20T23:18:02.320Z,3.63
2023-05-20T23:20:30.276Z,3.40
2023-05-20T23:23:03.459Z,3.53
2023-05-20T23:25:36.550Z,3.85
2023-05-20T23:28:05.728Z,3.17
2023-05-20T23:30:33.916Z,4.18
2023-05-20T23:33:02.182Z,3.65
2023-05-20T23:35:30.181Z,3.92
2023-05-20T23:37:59.553Z,3.65
2023-05-20T23:40:27.358Z,4.28
2023-05-20T23:42:55.248Z,4.00
2023-05-20T23:45:23.192Z,3.28
2023-05-20T23:47:51.057Z,3.85
2023-05-20T23:50:18.852Z,3.08
2023-05-20T23:52:46.658Z,4.22
2023-05-20T23:55:18.301Z,3.80
2023-05-20T23:57:46.134Z,3.25
